sensor_id;sensor_type;location;lat;lon;timestamp;temperature;humidity
26803;DHT22;14378;51.796;5.808;2023-02-05T00:00:04;8.60;99.90
26803;DHT22;14378;51.796;5.808;2023-02-05T00:05:42;8.70;99.90
26803;DHT22;14378;51.796;5.808;2023-02-05T00:07:47;8.70;99.90
26803;DHT22;14378;51.796;5.808;2023-02-05T00:09:48;8.70;99.90
26803;DHT22;14378;51.796;5.808;2023-02-05T00:11:53;8.70;99.90
26803;DHT22;14378;51.796;5.808;2023-02-05T00:13:54;8.70;99.90
26803;DHT22;14378;51.796;5.808;2023-02-05T00:15:55;8.70;99.90
26803;DHT22;14378;51.796;5.808;2023-02-05T00:17:56;8.80;99.90
26803;DHT22;14378;51.796;5.808;2023-02-05T00:19:57;8.80;99.90
26803;DHT22;14378;51.796;5.808;2023-02-05T00:21:58;8.70;99.90
26803;DHT22;14378;51.796;5.808;2023-02-05T00:23:58;8.70;99.90
26803;DHT22;14378;51.796;5.808;2023-02-05T00:26:03;8.70;99.90
26803;DHT22;14378;51.796;5.808;2023-02-05T00:28:04;8.70;99.90
26803;DHT22;14378;51.796;5.808;2023-02-05T00:30:05;8.70;99.90
26803;DHT22;14378;51.796;5.808;2023-02-05T00:32:06;8.70;99.90
26803;DHT22;14378;51.796;5.808;2023-02-05T00:34:07;8.70;99.90
26803;DHT22;14378;51.796;5.808;2023-02-05T00:36:18;8.70;99.90
26803;DHT22;14378;51.796;5.808;2023-02-05T00:38:22;8.60;99.90
26803;DHT22;14378;51.796;5.808;2023-02-05T00:40:23;8.60;99.90
26803;DHT22;14378;51.796;5.808;2023-02-05T00:42:24;8.60;99.90
26803;DHT22;14378;51.796;5.808;2023-02-05T00:44:25;8.60;99.90
26803;DHT22;14378;51.796;5.808;2023-02-05T00:46:26;8.60;99.90
26803;DHT22;14378;51.796;5.808;2023-02-05T00:48:27;8.60;99.90
26803;DHT22;14378;51.796;5.808;2023-02-05T00:50:28;8.60;99.90
26803;DHT22;14378;51.796;5.808;2023-02-05T00:52:30;8.60;99.90
26803;DHT22;14378;51.796;5.808;2023-02-05T00:54:31;8.60;99.90
26803;DHT22;14378;51.796;5.808;2023-02-05T00:56:32;8.60;99.90
26803;DHT22;14378;51.796;5.808;2023-02-05T00:58:33;8.70;99.90
26803;DHT22;14378;51.796;5.808;2023-02-05T01:03:18;8.70;99.90
26803;DHT22;14378;51.796;5.808;2023-02-05T01:05:21;8.70;99.90
26803;DHT22;14378;51.796;5.808;2023-02-05T01:07:22;8.60;99.90
26803;DHT22;14378;51.796;5.808;2023-02-05T01:09:23;8.60;99.90
26803;DHT22;14378;51.796;5.808;2023-02-05T01:11:24;8.70;99.90
26803;DHT22;14378;51.796;5.808;2023-02-05T01:13:25;8.70;99.90
26803;DHT22;14378;51.796;5.808;2023-02-05T01:15:26;8.70;99.90
26803;DHT22;14378;51.796;5.808;2023-02-05T01:17:27;8.70;99.90
26803;DHT22;14378;51.796;5.808;2023-02-05T01:19:28;8.70;99.90
26803;DHT22;14378;51.796;5.808;2023-02-05T01:21:29;8.70;99.90
26803;DHT22;14378;51.796;5.808;2023-02-05T01:23:30;8.70;99.90
26803;DHT22;14378;51.796;5.808;2023-02-05T01:25:31;8.70;99.90
26803;DHT22;14378;51.796;5.808;2023-02-05T01:27:33;8.70;99.90
26803;DHT22;14378;51.796;5.808;2023-02-05T01:29:34;8.70;99.90
26803;DHT22;14378;51.796;5.808;2023-02-05T01:31:35;8.70;99.90
26803;DHT22;14378;51.796;5.808;2023-02-05T01:33:36;8.70;99.90
26803;DHT22;14378;51.796;5.808;2023-02-05T01:35:36;8.70;99.90
26803;DHT22;14378;51.796;5.808;2023-02-05T01:37:37;8.70;99.90
26803;DHT22;14378;51.796;5.808;2023-02-05T01:39:38;8.70;99.90
26803;DHT22;14378;51.796;5.808;2023-02-05T01:41:41;8.70;99.90
26803;DHT22;14378;51.796;5.808;2023-02-05T01:43:42;8.70;99.90
26803;DHT22;14378;51.796;5.808;2023-02-05T01:47:58;8.70;99.90
26803;DHT22;14378;51.796;5.808;2023-02-05T01:49:59;8.80;99.90
26803;DHT22;14378;51.796;5.808;2023-02-05T01:52:04;8.90;99.90
26803;DHT22;14378;51.796;5.808;2023-02-05T01:54:06;8.90;99.90
26803;DHT22;14378;51.796;5.808;2023-02-05T01:56:20;9.00;99.90
26803;DHT22;14378;51.796;5.808;2023-02-05T01:58:25;9.00;99.90
26803;DHT22;14378;51.796;5.808;2023-02-05T02:00:27;9.00;99.90
26803;DHT22;14378;51.796;5.808;2023-02-05T02:02:28;9.10;99.90
26803;DHT22;14378;51.796;5.808;2023-02-05T02:04:40;9.10;99.90
26803;DHT22;14378;51.796;5.808;2023-02-05T02:06:41;9.10;99.90
26803;DHT22;14378;51.796;5.808;2023-02-05T02:08:42;9.10;99.90
26803;DHT22;14378;51.796;5.808;2023-02-05T02:10:45;9.20;99.90
26803;DHT22;14378;51.796;5.808;2023-02-05T02:12:49;9.20;99.90
26803;DHT22;14378;51.796;5.808;2023-02-05T02:14:52;9.20;99.90
26803;DHT22;14378;51.796;5.808;2023-02-05T02:16:56;9.30;99.90
26803;DHT22;14378;51.796;5.808;2023-02-05T02:18:59;9.30;99.90
26803;DHT22;14378;51.796;5.808;2023-02-05T02:27:43;9.30;99.90
26803;DHT22;14378;51.796;5.808;2023-02-05T02:29:56;9.30;99.90
26803;DHT22;14378;51.796;5.808;2023-02-05T02:32:21;9.30;99.90
26803;DHT22;14378;51.796;5.808;2023-02-05T02:34:35;9.30;99.90
26803;DHT22;14378;51.796;5.808;2023-02-05T02:36:58;9.30;99.90
26803;DHT22;14378;51.796;5.808;2023-02-05T02:39:41;9.30;99.90
26803;DHT22;14378;51.796;5.808;2023-02-05T02:41:51;9.20;99.90
26803;DHT22;14378;51.796;5.808;2023-02-05T02:43:58;9.20;99.90
26803;DHT22;14378;51.796;5.808;2023-02-05T02:46:29;9.30;99.90
26803;DHT22;14378;51.796;5.808;2023-02-05T02:48:29;9.30;99.90
26803;DHT22;14378;51.796;5.808;2023-02-05T02:50:34;9.30;99.90
26803;DHT22;14378;51.796;5.808;2023-02-05T02:52:39;9.20;99.90
26803;DHT22;14378;51.796;5.808;2023-02-05T02:54:46;9.20;99.90
26803;DHT22;14378;51.796;5.808;2023-02-05T02:56:51;9.30;99.90
26803;DHT22;14378;51.796;5.808;2023-02-05T02:58:59;9.20;99.90
26803;DHT22;14378;51.796;5.808;2023-02-05T03:01:10;9.20;99.90
26803;DHT22;14378;51.796;5.808;2023-02-05T03:03:16;9.20;99.90
26803;DHT22;14378;51.796;5.808;2023-02-05T03:05:21;9.20;99.90
26803;DHT22;14378;51.796;5.808;2023-02-05T03:07:45;9.20;99.90
26803;DHT22;14378;51.796;5.808;2023-02-05T03:11:56;9.20;99.90
26803;DHT22;14378;51.796;5.808;2023-02-05T03:14:01;9.10;99.90
26803;DHT22;14378;51.796;5.808;2023-02-05T03:16:06;9.10;99.90
26803;DHT22;14378;51.796;5.808;2023-02-05T03:18:08;9.10;99.90
26803;DHT22;14378;51.796;5.808;2023-02-05T03:20:16;9.10;99.90
26803;DHT22;14378;51.796;5.808;2023-02-05T03:22:18;9.10;99.90
26803;DHT22;14378;51.796;5.808;2023-02-05T03:24:19;9.10;99.90
26803;DHT22;14378;51.796;5.808;2023-02-05T03:26:31;9.20;99.90
26803;DHT22;14378;51.796;5.808;2023-02-05T03:28:41;9.10;99.90
26803;DHT22;14378;51.796;5.808;2023-02-05T03:31:12;9.10;99.90
26803;DHT22;14378;51.796;5.808;2023-02-05T03:33:43;9.10;99.90
26803;DHT22;14378;51.796;5.808;2023-02-05T03:36:06;9.10;99.90
26803;DHT22;14378;51.796;5.808;2023-02-05T03:38:17;9.10;99.90
26803;DHT22;14378;51.796;5.808;2023-02-05T03:41:00;9.10;99.90
26803;DHT22;14378;51.796;5.808;2023-02-05T03:43:30;9.10;99.90
26803;DHT22;14378;51.796;5.808;2023-02-05T03:56:12;9.20;99.90
26803;DHT22;14378;51.796;5.808;2023-02-05T03:58:23;9.10;99.90
26803;DHT22;14378;51.796;5.808;2023-02-05T04:00:26;9.10;99.90
26803;DHT22;14378;51.796;5.808;2023-02-05T04:02:31;9.10;99.90
26803;DHT22;14378;51.796;5.808;2023-02-05T04:04:33;9.10;99.90
26803;DHT22;14378;51.796;5.808;2023-02-05T04:06:35;9.10;99.90
26803;DHT22;14378;51.796;5.808;2023-02-05T04:08:37;9.00;99.90
26803;DHT22;14378;51.796;5.808;2023-02-05T04:10:38;9.10;99.90
26803;DHT22;14378;51.796;5.808;2023-02-05T04:12:40;9.10;99.90
26803;DHT22;14378;51.796;5.808;2023-02-05T04:14:40;9.00;99.90
26803;DHT22;14378;51.796;5.808;2023-02-05T04:16:44;9.00;99.90
26803;DHT22;14378;51.796;5.808;2023-02-05T04:18:46;9.00;99.90
26803;DHT22;14378;51.796;5.808;2023-02-05T04:20:48;9.00;99.90
26803;DHT22;14378;51.796;5.808;2023-02-05T04:22:52;9.00;99.90
26803;DHT22;14378;51.796;5.808;2023-02-05T04:24:54;9.00;99.90
26803;DHT22;14378;51.796;5.808;2023-02-05T04:26:56;9.00;99.90
26803;DHT22;14378;51.796;5.808;2023-02-05T04:28:57;8.90;99.90
26803;DHT22;14378;51.796;5.808;2023-02-05T04:30:59;8.90;99.90
26803;DHT22;14378;51.796;5.808;2023-02-05T04:33:00;8.90;99.90
26803;DHT22;14378;51.796;5.808;2023-02-05T04:35:01;8.90;99.90
26803;DHT22;14378;51.796;5.808;2023-02-05T04:37:02;8.90;99.90
26803;DHT22;14378;51.796;5.808;2023-02-05T04:39:04;8.80;99.90
26803;DHT22;14378;51.796;5.808;2023-02-05T04:41:05;8.80;99.90
26803;DHT22;14378;51.796;5.808;2023-02-05T04:43:07;8.80;99.90
26803;DHT22;14378;51.796;5.808;2023-02-05T04:45:08;8.80;99.90
26803;DHT22;14378;51.796;5.808;2023-02-05T04:47:09;8.70;99.90
26803;DHT22;14378;51.796;5.808;2023-02-05T04:49:10;8.70;99.90
26803;DHT22;14378;51.796;5.808;2023-02-05T04:51:12;8.70;99.90
26803;DHT22;14378;51.796;5.808;2023-02-05T04:53:13;8.70;99.90
26803;DHT22;14378;51.796;5.808;2023-02-05T04:55:14;8.80;99.90
26803;DHT22;14378;51.796;5.808;2023-02-05T04:57:15;8.80;99.90
26803;DHT22;14378;51.796;5.808;2023-02-05T04:59:16;8.80;99.90
26803;DHT22;14378;51.796;5.808;2023-02-05T05:01:19;8.80;99.90
26803;DHT22;14378;51.796;5.808;2023-02-05T05:03:20;8.80;99.90
26803;DHT22;14378;51.796;5.808;2023-02-05T05:05:21;8.90;99.90
26803;DHT22;14378;51.796;5.808;2023-02-05T05:07:22;8.90;99.90
26803;DHT22;14378;51.796;5.808;2023-02-05T05:09:23;8.80;99.90
26803;DHT22;14378;51.796;5.808;2023-02-05T05:11:24;8.80;99.90
26803;DHT22;14378;51.796;5.808;2023-02-05T05:13:26;8.80;99.90
26803;DHT22;14378;51.796;5.808;2023-02-05T05:15:27;8.80;99.90
26803;DHT22;14378;51.796;5.808;2023-02-05T05:17:28;8.80;99.90
26803;DHT22;14378;51.796;5.808;2023-02-05T05:19:30;8.80;99.90
26803;DHT22;14378;51.796;5.808;2023-02-05T05:21:31;8.80;99.90
26803;DHT22;14378;51.796;5.808;2023-02-05T05:23:33;8.80;99.90
26803;DHT22;14378;51.796;5.808;2023-02-05T05:25:44;8.80;99.90
26803;DHT22;14378;51.796;5.808;2023-02-05T05:27:46;8.70;99.90
26803;DHT22;14378;51.796;5.808;2023-02-05T05:29:50;8.80;99.90
26803;DHT22;14378;51.796;5.808;2023-02-05T05:31:51;8.70;99.90
26803;DHT22;14378;51.796;5.808;2023-02-05T05:33:52;8.80;99.90
26803;DHT22;14378;51.796;5.808;2023-02-05T05:35:53;8.80;99.90
26803;DHT22;14378;51.796;5.808;2023-02-05T05:37:58;8.80;99.90
26803;DHT22;14378;51.796;5.808;2023-02-05T05:39:59;8.80;99.90
26803;DHT22;14378;51.796;5.808;2023-02-05T05:42:18;8.80;99.90
26803;DHT22;14378;51.796;5.808;2023-02-05T05:44:39;8.80;99.90
26803;DHT22;14378;51.796;5.808;2023-02-05T05:46:45;8.70;99.90
26803;DHT22;14378;51.796;5.808;2023-02-05T05:48:51;8.70;99.90
26803;DHT22;14378;51.796;5.808;2023-02-05T05:50:52;8.70;99.90
26803;DHT22;14378;51.796;5.808;2023-02-05T05:52:53;8.70;99.90
26803;DHT22;14378;51.796;5.808;2023-02-05T05:54:54;8.70;99.90
26803;DHT22;14378;51.796;5.808;2023-02-05T05:56:55;8.70;99.90
26803;DHT22;14378;51.796;5.808;2023-02-05T05:58:56;8.70;99.90
26803;DHT22;14378;51.796;5.808;2023-02-05T06:00:57;8.60;99.90
26803;DHT22;14378;51.796;5.808;2023-02-05T06:02:58;8.60;99.90
26803;DHT22;14378;51.796;5.808;2023-02-05T06:04:59;8.50;99.90
26803;DHT22;14378;51.796;5.808;2023-02-05T06:07:01;8.50;99.90
26803;DHT22;14378;51.796;5.808;2023-02-05T06:09:02;8.50;99.90
26803;DHT22;14378;51.796;5.808;2023-02-05T06:11:04;8.50;99.90
26803;DHT22;14378;51.796;5.808;2023-02-05T06:13:06;8.50;99.90
26803;DHT22;14378;51.796;5.808;2023-02-05T06:15:08;8.50;99.90
26803;DHT22;14378;51.796;5.808;2023-02-05T06:17:09;8.50;99.90
26803;DHT22;14378;51.796;5.808;2023-02-05T06:19:10;8.50;99.90
26803;DHT22;14378;51.796;5.808;2023-02-05T06:21:14;8.60;99.90
26803;DHT22;14378;51.796;5.808;2023-02-05T06:23:16;8.60;99.90
26803;DHT22;14378;51.796;5.808;2023-02-05T06:25:17;8.60;99.90
26803;DHT22;14378;51.796;5.808;2023-02-05T06:27:18;8.60;99.90
26803;DHT22;14378;51.796;5.808;2023-02-05T06:29:19;8.60;99.90
26803;DHT22;14378;51.796;5.808;2023-02-05T06:31:20;8.60;99.90
26803;DHT22;14378;51.796;5.808;2023-02-05T06:33:21;8.70;99.90
26803;DHT22;14378;51.796;5.808;2023-02-05T06:35:22;8.70;99.90
26803;DHT22;14378;51.796;5.808;2023-02-05T06:37:23;8.70;99.90
26803;DHT22;14378;51.796;5.808;2023-02-05T06:39:28;8.70;99.90
26803;DHT22;14378;51.796;5.808;2023-02-05T06:41:29;8.70;99.90
26803;DHT22;14378;51.796;5.808;2023-02-05T06:43:31;8.70;99.90
26803;DHT22;14378;51.796;5.808;2023-02-05T06:45:32;8.70;99.90
26803;DHT22;14378;51.796;5.808;2023-02-05T06:47:33;8.70;99.90
26803;DHT22;14378;51.796;5.808;2023-02-05T06:49:34;8.60;99.90
26803;DHT22;14378;51.796;5.808;2023-02-05T06:51:35;8.60;99.90
26803;DHT22;14378;51.796;5.808;2023-02-05T06:53:36;8.50;99.90
26803;DHT22;14378;51.796;5.808;2023-02-05T06:55:37;8.50;99.90
26803;DHT22;14378;51.796;5.808;2023-02-05T06:57:38;8.40;99.90
26803;DHT22;14378;51.796;5.808;2023-02-05T06:59:39;8.40;99.90
26803;DHT22;14378;51.796;5.808;2023-02-05T07:01:40;8.40;99.90
26803;DHT22;14378;51.796;5.808;2023-02-05T07:03:41;8.30;99.90
26803;DHT22;14378;51.796;5.808;2023-02-05T07:05:42;8.30;99.90
26803;DHT22;14378;51.796;5.808;2023-02-05T07:07:45;8.30;99.90
26803;DHT22;14378;51.796;5.808;2023-02-05T07:09:46;8.20;99.90
26803;DHT22;14378;51.796;5.808;2023-02-05T07:11:47;8.20;99.90
26803;DHT22;14378;51.796;5.808;2023-02-05T07:13:47;8.20;99.90
26803;DHT22;14378;51.796;5.808;2023-02-05T07:15:48;8.10;99.90
26803;DHT22;14378;51.796;5.808;2023-02-05T07:17:49;8.10;99.90
26803;DHT22;14378;51.796;5.808;2023-02-05T07:19:50;8.10;99.90
26803;DHT22;14378;51.796;5.808;2023-02-05T07:21:51;8.10;99.90
26803;DHT22;14378;51.796;5.808;2023-02-05T07:23:52;8.10;99.90
26803;DHT22;14378;51.796;5.808;2023-02-05T07:25:53;8.10;99.90
26803;DHT22;14378;51.796;5.808;2023-02-05T07:27:54;8.10;99.90
26803;DHT22;14378;51.796;5.808;2023-02-05T07:29:56;8.10;99.90
26803;DHT22;14378;51.796;5.808;2023-02-05T07:31:56;8.00;99.90
26803;DHT22;14378;51.796;5.808;2023-02-05T07:33:58;8.00;99.90
26803;DHT22;14378;51.796;5.808;2023-02-05T07:36:07;8.00;99.90
26803;DHT22;14378;51.796;5.808;2023-02-05T07:38:08;8.00;99.90
26803;DHT22;14378;51.796;5.808;2023-02-05T07:40:10;8.00;99.90
26803;DHT22;14378;51.796;5.808;2023-02-05T07:42:11;8.00;99.90
26803;DHT22;14378;51.796;5.808;2023-02-05T07:44:20;8.00;99.90
26803;DHT22;14378;51.796;5.808;2023-02-05T07:46:21;7.90;99.90
26803;DHT22;14378;51.796;5.808;2023-02-05T07:48:22;7.90;99.90
26803;DHT22;14378;51.796;5.808;2023-02-05T07:50:23;7.90;99.90
26803;DHT22;14378;51.796;5.808;2023-02-05T07:52:24;7.90;99.90
26803;DHT22;14378;51.796;5.808;2023-02-05T07:54:25;7.90;99.90
26803;DHT22;14378;51.796;5.808;2023-02-05T07:56:26;7.90;99.90
26803;DHT22;14378;51.796;5.808;2023-02-05T07:58:27;7.90;99.90
26803;DHT22;14378;51.796;5.808;2023-02-05T08:00:28;7.90;99.90
26803;DHT22;14378;51.796;5.808;2023-02-05T08:02:29;7.90;99.90
26803;DHT22;14378;51.796;5.808;2023-02-05T08:04:30;8.00;99.90
26803;DHT22;14378;51.796;5.808;2023-02-05T08:06:32;8.00;99.90
26803;DHT22;14378;51.796;5.808;2023-02-05T08:08:34;8.00;99.90
26803;DHT22;14378;51.796;5.808;2023-02-05T08:10:36;8.00;99.90
26803;DHT22;14378;51.796;5.808;2023-02-05T08:12:37;8.00;99.90
26803;DHT22;14378;51.796;5.808;2023-02-05T08:14:38;8.00;99.90
26803;DHT22;14378;51.796;5.808;2023-02-05T08:16:39;8.00;99.90
26803;DHT22;14378;51.796;5.808;2023-02-05T08:18:40;8.00;99.90
26803;DHT22;14378;51.796;5.808;2023-02-05T08:20:41;8.00;99.90
26803;DHT22;14378;51.796;5.808;2023-02-05T08:22:45;8.10;99.90
26803;DHT22;14378;51.796;5.808;2023-02-05T08:24:48;8.00;99.90
26803;DHT22;14378;51.796;5.808;2023-02-05T08:26:49;8.10;99.90
26803;DHT22;14378;51.796;5.808;2023-02-05T08:28:50;8.10;99.90
26803;DHT22;14378;51.796;5.808;2023-02-05T08:30:52;8.10;99.90
26803;DHT22;14378;51.796;5.808;2023-02-05T08:32:52;8.00;99.90
26803;DHT22;14378;51.796;5.808;2023-02-05T08:34:53;8.00;99.90
26803;DHT22;14378;51.796;5.808;2023-02-05T08:37:01;8.00;99.90
26803;DHT22;14378;51.796;5.808;2023-02-05T08:39:02;8.00;99.90
26803;DHT22;14378;51.796;5.808;2023-02-05T08:41:05;8.10;99.90
26803;DHT22;14378;51.796;5.808;2023-02-05T08:43:12;8.10;99.90
26803;DHT22;14378;51.796;5.808;2023-02-05T08:45:15;8.10;99.90
26803;DHT22;14378;51.796;5.808;2023-02-05T08:47:20;8.10;99.90
26803;DHT22;14378;51.796;5.808;2023-02-05T08:49:21;8.10;99.90
26803;DHT22;14378;51.796;5.808;2023-02-05T08:51:22;8.10;99.90
26803;DHT22;14378;51.796;5.808;2023-02-05T08:53:23;8.10;99.90
26803;DHT22;14378;51.796;5.808;2023-02-05T08:55:25;8.10;99.90
26803;DHT22;14378;51.796;5.808;2023-02-05T08:57:27;8.10;99.90
26803;DHT22;14378;51.796;5.808;2023-02-05T08:59:28;8.10;99.90
26803;DHT22;14378;51.796;5.808;2023-02-05T09:01:30;8.10;99.90
26803;DHT22;14378;51.796;5.808;2023-02-05T09:03:32;8.10;99.90
26803;DHT22;14378;51.796;5.808;2023-02-05T09:05:33;8.10;99.90
26803;DHT22;14378;51.796;5.808;2023-02-05T09:07:34;8.10;99.90
26803;DHT22;14378;51.796;5.808;2023-02-05T09:09:35;8.10;99.90
26803;DHT22;14378;51.796;5.808;2023-02-05T09:11:36;8.10;99.90
26803;DHT22;14378;51.796;5.808;2023-02-05T09:13:38;8.10;99.90
26803;DHT22;14378;51.796;5.808;2023-02-05T09:15:44;8.10;99.90
26803;DHT22;14378;51.796;5.808;2023-02-05T09:17:47;8.20;99.90
26803;DHT22;14378;51.796;5.808;2023-02-05T09:19:48;8.20;99.90
26803;DHT22;14378;51.796;5.808;2023-02-05T09:21:48;8.20;99.90
26803;DHT22;14378;51.796;5.808;2023-02-05T09:23:50;8.20;99.90
26803;DHT22;14378;51.796;5.808;2023-02-05T09:25:57;8.20;99.90
26803;DHT22;14378;51.796;5.808;2023-02-05T09:27:59;8.30;99.90
26803;DHT22;14378;51.796;5.808;2023-02-05T09:30:00;8.30;99.90
26803;DHT22;14378;51.796;5.808;2023-02-05T09:32:01;8.30;99.90
26803;DHT22;14378;51.796;5.808;2023-02-05T09:34:02;8.40;99.90
26803;DHT22;14378;51.796;5.808;2023-02-05T09:36:08;8.40;99.90
26803;DHT22;14378;51.796;5.808;2023-02-05T09:38:16;8.40;99.90
26803;DHT22;14378;51.796;5.808;2023-02-05T09:40:20;8.40;99.90
26803;DHT22;14378;51.796;5.808;2023-02-05T09:45:15;8.40;99.90
26803;DHT22;14378;51.796;5.808;2023-02-05T09:47:46;8.40;99.90
26803;DHT22;14378;51.796;5.808;2023-02-05T09:52:25;8.60;99.90
26803;DHT22;14378;51.796;5.808;2023-02-05T09:54:31;8.60;99.90
26803;DHT22;14378;51.796;5.808;2023-02-05T09:56:33;8.70;99.90
26803;DHT22;14378;51.796;5.808;2023-02-05T09:58:39;8.70;99.90
26803;DHT22;14378;51.796;5.808;2023-02-05T10:00:48;8.80;99.90
26803;DHT22;14378;51.796;5.808;2023-02-05T10:03:16;8.90;99.90
26803;DHT22;14378;51.796;5.808;2023-02-05T10:05:21;8.90;99.90
26803;DHT22;14378;51.796;5.808;2023-02-05T10:24:00;9.00;99.90
26803;DHT22;14378;51.796;5.808;2023-02-05T10:26:15;9.00;99.90
26803;DHT22;14378;51.796;5.808;2023-02-05T10:30:48;9.00;99.90
26803;DHT22;14378;51.796;5.808;2023-02-05T10:32:55;9.00;99.90
26803;DHT22;14378;51.796;5.808;2023-02-05T10:37:26;9.00;99.90
26803;DHT22;14378;51.796;5.808;2023-02-05T10:39:30;9.00;99.90
26803;DHT22;14378;51.796;5.808;2023-02-05T10:41:41;9.00;99.90
26803;DHT22;14378;51.796;5.808;2023-02-05T10:43:48;9.00;99.90
26803;DHT22;14378;51.796;5.808;2023-02-05T10:45:50;9.00;99.90
26803;DHT22;14378;51.796;5.808;2023-02-05T10:53:02;8.90;99.90
26803;DHT22;14378;51.796;5.808;2023-02-05T10:55:03;9.00;99.90
26803;DHT22;14378;51.796;5.808;2023-02-05T10:57:15;9.00;99.90
26803;DHT22;14378;51.796;5.808;2023-02-05T10:59:22;9.00;99.90
26803;DHT22;14378;51.796;5.808;2023-02-05T11:01:33;9.10;99.90
26803;DHT22;14378;51.796;5.808;2023-02-05T11:03:36;9.10;99.90
26803;DHT22;14378;51.796;5.808;2023-02-05T11:05:39;9.10;99.90
26803;DHT22;14378;51.796;5.808;2023-02-05T11:07:47;9.10;99.90
26803;DHT22;14378;51.796;5.808;2023-02-05T11:09:48;9.10;99.90
26803;DHT22;14378;51.796;5.808;2023-02-05T11:11:51;9.10;99.90
26803;DHT22;14378;51.796;5.808;2023-02-05T11:14:04;9.10;99.90
26803;DHT22;14378;51.796;5.808;2023-02-05T11:16:08;9.20;99.90
26803;DHT22;14378;51.796;5.808;2023-02-05T11:18:22;9.20;99.90
26803;DHT22;14378;51.796;5.808;2023-02-05T11:20:29;9.20;99.90
26803;DHT22;14378;51.796;5.808;2023-02-05T11:22:35;9.20;99.90
26803;DHT22;14378;51.796;5.808;2023-02-05T11:24:39;9.20;99.90
26803;DHT22;14378;51.796;5.808;2023-02-05T11:26:40;9.20;99.90
26803;DHT22;14378;51.796;5.808;2023-02-05T11:28:46;9.20;99.90
26803;DHT22;14378;51.796;5.808;2023-02-05T11:30:47;9.20;99.90
26803;DHT22;14378;51.796;5.808;2023-02-05T11:32:48;9.20;99.90
26803;DHT22;14378;51.796;5.808;2023-02-05T11:34:49;9.20;99.90
26803;DHT22;14378;51.796;5.808;2023-02-05T11:37:15;9.20;99.90
26803;DHT22;14378;51.796;5.808;2023-02-05T11:39:36;9.20;99.90
26803;DHT22;14378;51.796;5.808;2023-02-05T11:41:39;9.20;99.90
26803;DHT22;14378;51.796;5.808;2023-02-05T11:43:49;9.20;99.90
26803;DHT22;14378;51.796;5.808;2023-02-05T11:45:52;9.40;99.90
26803;DHT22;14378;51.796;5.808;2023-02-05T11:48:21;9.40;99.90
26803;DHT22;14378;51.796;5.808;2023-02-05T11:50:25;9.40;99.90
26803;DHT22;14378;51.796;5.808;2023-02-05T11:52:36;9.50;99.90
26803;DHT22;14378;51.796;5.808;2023-02-05T11:54:38;9.50;99.90
26803;DHT22;14378;51.796;5.808;2023-02-05T11:59:22;9.60;99.90
26803;DHT22;14378;51.796;5.808;2023-02-05T12:01:23;9.60;99.90
26803;DHT22;14378;51.796;5.808;2023-02-05T12:03:27;9.70;99.90
26803;DHT22;14378;51.796;5.808;2023-02-05T12:05:34;9.70;99.90
26803;DHT22;14378;51.796;5.808;2023-02-05T12:09:50;9.80;99.90
26803;DHT22;14378;51.796;5.808;2023-02-05T12:14:31;9.90;99.90
26803;DHT22;14378;51.796;5.808;2023-02-05T12:16:51;9.80;99.90
26803;DHT22;14378;51.796;5.808;2023-02-05T12:19:04;9.80;99.90
26803;DHT22;14378;51.796;5.808;2023-02-05T12:23:44;9.80;99.90
26803;DHT22;14378;51.796;5.808;2023-02-05T12:26:00;9.90;99.90
26803;DHT22;14378;51.796;5.808;2023-02-05T12:28:19;9.90;99.90
26803;DHT22;14378;51.796;5.808;2023-02-05T12:32:46;10.00;99.90
26803;DHT22;14378;51.796;5.808;2023-02-05T12:35:02;10.00;99.90
26803;DHT22;14378;51.796;5.808;2023-02-05T12:37:17;10.10;99.90
26803;DHT22;14378;51.796;5.808;2023-02-05T12:39:53;10.10;99.90
26803;DHT22;14378;51.796;5.808;2023-02-05T12:42:34;10.20;99.90
26803;DHT22;14378;51.796;5.808;2023-02-05T12:47:07;10.50;99.90
26803;DHT22;14378;51.796;5.808;2023-02-05T12:58:52;11.10;99.90
26803;DHT22;14378;51.796;5.808;2023-02-05T13:01:01;11.20;99.90
26803;DHT22;14378;51.796;5.808;2023-02-05T13:03:29;11.40;99.90
26803;DHT22;14378;51.796;5.808;2023-02-05T13:05:43;11.50;99.90
26803;DHT22;14378;51.796;5.808;2023-02-05T13:12:51;11.70;99.90
26803;DHT22;14378;51.796;5.808;2023-02-05T13:17:16;11.70;99.90
26803;DHT22;14378;51.796;5.808;2023-02-05T13:19:33;11.70;99.90
26803;DHT22;14378;51.796;5.808;2023-02-05T13:21:36;11.60;99.90
26803;DHT22;14378;51.796;5.808;2023-02-05T13:26:44;11.40;99.90
26803;DHT22;14378;51.796;5.808;2023-02-05T13:29:10;11.40;99.90
26803;DHT22;14378;51.796;5.808;2023-02-05T13:33:16;11.40;99.90
26803;DHT22;14378;51.796;5.808;2023-02-05T13:35:17;11.40;99.90
26803;DHT22;14378;51.796;5.808;2023-02-05T13:40:01;11.30;99.90
26803;DHT22;14378;51.796;5.808;2023-02-05T14:00:10;12.30;99.90
26803;DHT22;14378;51.796;5.808;2023-02-05T14:02:33;12.30;99.90
26803;DHT22;14378;51.796;5.808;2023-02-05T14:04:39;12.10;99.90
26803;DHT22;14378;51.796;5.808;2023-02-05T14:06:42;12.00;99.90
26803;DHT22;14378;51.796;5.808;2023-02-05T14:08:55;12.00;99.90
26803;DHT22;14378;51.796;5.808;2023-02-05T14:11:03;11.90;99.90
26803;DHT22;14378;51.796;5.808;2023-02-05T14:13:32;11.80;99.90
26803;DHT22;14378;51.796;5.808;2023-02-05T14:15:44;11.70;99.90
26803;DHT22;14378;51.796;5.808;2023-02-05T14:19:51;11.60;99.90
26803;DHT22;14378;51.796;5.808;2023-02-05T14:22:01;11.60;99.90
26803;DHT22;14378;51.796;5.808;2023-02-05T14:28:50;11.60;99.90
26803;DHT22;14378;51.796;5.808;2023-02-05T14:30:52;11.60;99.90
26803;DHT22;14378;51.796;5.808;2023-02-05T14:35:36;11.70;99.90
26803;DHT22;14378;51.796;5.808;2023-02-05T14:37:47;11.80;99.90
26803;DHT22;14378;51.796;5.808;2023-02-05T14:39:50;11.80;99.90
26803;DHT22;14378;51.796;5.808;2023-02-05T14:41:53;11.80;99.90
26803;DHT22;14378;51.796;5.808;2023-02-05T14:44:02;11.80;99.90
26803;DHT22;14378;51.796;5.808;2023-02-05T14:46:18;11.80;99.90
26803;DHT22;14378;51.796;5.808;2023-02-05T14:48:25;11.90;99.90
26803;DHT22;14378;51.796;5.808;2023-02-05T14:50:28;11.90;99.90
26803;DHT22;14378;51.796;5.808;2023-02-05T14:54:46;11.80;99.90
26803;DHT22;14378;51.796;5.808;2023-02-05T14:59:30;11.70;99.90
26803;DHT22;14378;51.796;5.808;2023-02-05T15:03:37;11.70;99.90
26803;DHT22;14378;51.796;5.808;2023-02-05T15:05:46;11.60;99.90
26803;DHT22;14378;51.796;5.808;2023-02-05T15:07:52;11.60;99.90
26803;DHT22;14378;51.796;5.808;2023-02-05T15:10:02;11.60;99.90
26803;DHT22;14378;51.796;5.808;2023-02-05T15:14:50;11.60;99.90
26803;DHT22;14378;51.796;5.808;2023-02-05T15:19:10;11.50;99.90
26803;DHT22;14378;51.796;5.808;2023-02-05T15:23:30;11.40;99.90
26803;DHT22;14378;51.796;5.808;2023-02-05T15:25:38;11.40;99.90
26803;DHT22;14378;51.796;5.808;2023-02-05T15:27:45;11.30;99.90
26803;DHT22;14378;51.796;5.808;2023-02-05T15:29:53;11.20;99.90
26803;DHT22;14378;51.796;5.808;2023-02-05T15:32:44;11.20;99.90
26803;DHT22;14378;51.796;5.808;2023-02-05T15:34:42;11.20;99.90
26803;DHT22;14378;51.796;5.808;2023-02-05T15:37:27;11.10;99.90
26803;DHT22;14378;51.796;5.808;2023-02-05T15:39:33;11.10;99.90
26803;DHT22;14378;51.796;5.808;2023-02-05T15:41:36;11.10;99.90
26803;DHT22;14378;51.796;5.808;2023-02-05T15:43:39;11.00;99.90